sensor_id;sensor_type;location;lat;lon;timestamp;pressure;altitude;pressure_sealevel;temperature
12875;BMP180;6505;51.114;13.128;2022-08-03T00:02:17;99692.00;;;26.50
12875;BMP180;6505;51.114;13.128;2022-08-03T00:04:47;99691.00;;;26.50
12875;BMP180;6505;51.114;13.128;2022-08-03T00:07:15;99687.00;;;26.50
12875;BMP180;6505;51.114;13.128;2022-08-03T00:09:44;99685.00;;;26.50
12875;BMP180;6505;51.114;13.128;2022-08-03T00:12:13;99685.00;;;26.50
12875;BMP180;6505;51.114;13.128;2022-08-03T00:14:42;99679.00;;;26.40
12875;BMP180;6505;51.114;13.128;2022-08-03T00:17:13;99673.00;;;26.40
12875;BMP180;6505;51.114;13.128;2022-08-03T00:19:41;99678.00;;;26.40
12875;BMP180;6505;51.114;13.128;2022-08-03T00:22:10;99676.00;;;26.40
12875;BMP180;6505;51.114;13.128;2022-08-03T00:24:40;99676.00;;;26.40
12875;BMP180;6505;51.114;13.128;2022-08-03T00:27:08;99677.00;;;26.30
12875;BMP180;6505;51.114;13.128;2022-08-03T00:29:42;99679.00;;;26.30
12875;BMP180;6505;51.114;13.128;2022-08-03T00:32:28;99670.00;;;26.30
12875;BMP180;6505;51.114;13.128;2022-08-03T00:34:57;99675.00;;;26.30
12875;BMP180;6505;51.114;13.128;2022-08-03T00:37:27;99672.00;;;26.20
12875;BMP180;6505;51.114;13.128;2022-08-03T00:40:11;99671.00;;;26.20
12875;BMP180;6505;51.114;13.128;2022-08-03T00:42:49;99678.00;;;26.20
12875;BMP180;6505;51.114;13.128;2022-08-03T00:45:22;99673.00;;;26.20
12875;BMP180;6505;51.114;13.128;2022-08-03T00:47:54;99674.00;;;26.10
12875;BMP180;6505;51.114;13.128;2022-08-03T00:50:26;99674.00;;;26.10
12875;BMP180;6505;51.114;13.128;2022-08-03T00:52:58;99671.00;;;26.00
12875;BMP180;6505;51.114;13.128;2022-08-03T00:55:27;99665.00;;;26.10
12875;BMP180;6505;51.114;13.128;2022-08-03T00:57:56;99677.00;;;26.10
12875;BMP180;6505;51.114;13.128;2022-08-03T01:00:27;99671.00;;;26.10
12875;BMP180;6505;51.114;13.128;2022-08-03T01:03:00;99671.00;;;26.00
12875;BMP180;6505;51.114;13.128;2022-08-03T01:05:44;99674.00;;;26.00
12875;BMP180;6505;51.114;13.128;2022-08-03T01:08:27;99672.00;;;25.90
12875;BMP180;6505;51.114;13.128;2022-08-03T01:11:09;99682.00;;;25.90
12875;BMP180;6505;51.114;13.128;2022-08-03T01:13:49;99675.00;;;25.90
12875;BMP180;6505;51.114;13.128;2022-08-03T01:16:35;99666.00;;;25.90
12875;BMP180;6505;51.114;13.128;2022-08-03T01:19:30;99673.00;;;25.80
12875;BMP180;6505;51.114;13.128;2022-08-03T01:22:25;99673.00;;;25.80
12875;BMP180;6505;51.114;13.128;2022-08-03T01:25:05;99678.00;;;25.80
12875;BMP180;6505;51.114;13.128;2022-08-03T01:27:51;99675.00;;;25.80
12875;BMP180;6505;51.114;13.128;2022-08-03T01:30:27;99675.00;;;25.80
12875;BMP180;6505;51.114;13.128;2022-08-03T01:33:01;99670.00;;;25.80
12875;BMP180;6505;51.114;13.128;2022-08-03T01:35:34;99662.00;;;25.80
12875;BMP180;6505;51.114;13.128;2022-08-03T01:38:10;99666.00;;;25.70
12875;BMP180;6505;51.114;13.128;2022-08-03T01:40:40;99661.00;;;25.70
12875;BMP180;6505;51.114;13.128;2022-08-03T01:43:15;99660.00;;;25.70
12875;BMP180;6505;51.114;13.128;2022-08-03T01:46:07;99654.00;;;25.70
12875;BMP180;6505;51.114;13.128;2022-08-03T01:48:38;99660.00;;;25.70
12875;BMP180;6505;51.114;13.128;2022-08-03T01:51:09;99661.00;;;25.70
12875;BMP180;6505;51.114;13.128;2022-08-03T01:53:39;99654.00;;;25.60
12875;BMP180;6505;51.114;13.128;2022-08-03T01:56:09;99662.00;;;25.60
12875;BMP180;6505;51.114;13.128;2022-08-03T01:58:39;99663.00;;;25.60
12875;BMP180;6505;51.114;13.128;2022-08-03T02:01:10;99659.00;;;25.60
12875;BMP180;6505;51.114;13.128;2022-08-03T02:03:42;99668.00;;;25.60
12875;BMP180;6505;51.114;13.128;2022-08-03T02:06:28;99658.00;;;25.60
12875;BMP180;6505;51.114;13.128;2022-08-03T02:09:20;99667.00;;;25.50
12875;BMP180;6505;51.114;13.128;2022-08-03T02:11:50;99659.00;;;25.50
12875;BMP180;6505;51.114;13.128;2022-08-03T02:14:20;99650.00;;;25.50
12875;BMP180;6505;51.114;13.128;2022-08-03T02:16:51;99658.00;;;25.50
12875;BMP180;6505;51.114;13.128;2022-08-03T02:19:20;99653.00;;;25.50
12875;BMP180;6505;51.114;13.128;2022-08-03T02:21:52;99652.00;;;25.50
12875;BMP180;6505;51.114;13.128;2022-08-03T02:24:27;99659.00;;;25.50
12875;BMP180;6505;51.114;13.128;2022-08-03T02:26:56;99649.00;;;25.40
12875;BMP180;6505;51.114;13.128;2022-08-03T02:29:31;99656.00;;;25.40
12875;BMP180;6505;51.114;13.128;2022-08-03T02:32:11;99659.00;;;25.40
12875;BMP180;6505;51.114;13.128;2022-08-03T02:34:46;99648.00;;;25.40
12875;BMP180;6505;51.114;13.128;2022-08-03T02:37:18;99650.00;;;25.40
12875;BMP180;6505;51.114;13.128;2022-08-03T02:39:47;99647.00;;;25.40
12875;BMP180;6505;51.114;13.128;2022-08-03T02:42:21;99647.00;;;25.40
12875;BMP180;6505;51.114;13.128;2022-08-03T02:44:54;99646.00;;;25.30
12875;BMP180;6505;51.114;13.128;2022-08-03T02:47:26;99641.00;;;25.30
12875;BMP180;6505;51.114;13.128;2022-08-03T02:50:17;99640.00;;;25.30
12875;BMP180;6505;51.114;13.128;2022-08-03T02:52:47;99635.00;;;25.30
12875;BMP180;6505;51.114;13.128;2022-08-03T02:55:18;99647.00;;;25.30
12875;BMP180;6505;51.114;13.128;2022-08-03T02:57:48;99647.00;;;25.30
12875;BMP180;6505;51.114;13.128;2022-08-03T03:00:17;99643.00;;;25.30
12875;BMP180;6505;51.114;13.128;2022-08-03T03:02:57;99645.00;;;25.20
12875;BMP180;6505;51.114;13.128;2022-08-03T03:05:27;99647.00;;;25.20
12875;BMP180;6505;51.114;13.128;2022-08-03T03:08:21;99653.00;;;25.20
12875;BMP180;6505;51.114;13.128;2022-08-03T03:10:55;99654.00;;;25.20
12875;BMP180;6505;51.114;13.128;2022-08-03T03:13:26;99651.00;;;25.10
12875;BMP180;6505;51.114;13.128;2022-08-03T03:15:57;99648.00;;;25.20
12875;BMP180;6505;51.114;13.128;2022-08-03T03:18:30;99654.00;;;25.10
12875;BMP180;6505;51.114;13.128;2022-08-03T03:21:00;99657.00;;;25.10
12875;BMP180;6505;51.114;13.128;2022-08-03T03:23:30;99650.00;;;25.10
12875;BMP180;6505;51.114;13.128;2022-08-03T03:26:00;99649.00;;;25.10
12875;BMP180;6505;51.114;13.128;2022-08-03T03:28:30;99651.00;;;25.10
12875;BMP180;6505;51.114;13.128;2022-08-03T03:30:59;99651.00;;;25.10
12875;BMP180;6505;51.114;13.128;2022-08-03T03:33:29;99654.00;;;25.10
12875;BMP180;6505;51.114;13.128;2022-08-03T03:35:58;99644.00;;;25.10
12875;BMP180;6505;51.114;13.128;2022-08-03T03:38:26;99641.00;;;25.00
12875;BMP180;6505;51.114;13.128;2022-08-03T03:40:55;99644.00;;;25.00
12875;BMP180;6505;51.114;13.128;2022-08-03T03:43:23;99646.00;;;25.00
12875;BMP180;6505;51.114;13.128;2022-08-03T03:45:52;99647.00;;;25.00
12875;BMP180;6505;51.114;13.128;2022-08-03T03:48:20;99645.00;;;25.00
12875;BMP180;6505;51.114;13.128;2022-08-03T03:50:50;99645.00;;;25.00
12875;BMP180;6505;51.114;13.128;2022-08-03T03:53:18;99625.00;;;25.00
12875;BMP180;6505;51.114;13.128;2022-08-03T03:55:46;99650.00;;;25.00
12875;BMP180;6505;51.114;13.128;2022-08-03T03:58:30;99647.00;;;25.00
12875;BMP180;6505;51.114;13.128;2022-08-03T04:00:59;99637.00;;;24.90
12875;BMP180;6505;51.114;13.128;2022-08-03T04:03:27;99647.00;;;24.90
12875;BMP180;6505;51.114;13.128;2022-08-03T04:05:57;99647.00;;;24.90
12875;BMP180;6505;51.114;13.128;2022-08-03T04:08:44;99647.00;;;24.90
12875;BMP180;6505;51.114;13.128;2022-08-03T04:11:46;99641.00;;;24.90
12875;BMP180;6505;51.114;13.128;2022-08-03T04:14:18;99647.00;;;24.90
12875;BMP180;6505;51.114;13.128;2022-08-03T04:16:50;99644.00;;;24.90
12875;BMP180;6505;51.114;13.128;2022-08-03T04:19:27;99647.00;;;24.80
12875;BMP180;6505;51.114;13.128;2022-08-03T04:22:03;99647.00;;;24.90
12875;BMP180;6505;51.114;13.128;2022-08-03T04:24:38;99647.00;;;24.90
12875;BMP180;6505;51.114;13.128;2022-08-03T04:27:11;99651.00;;;24.90
12875;BMP180;6505;51.114;13.128;2022-08-03T04:29:48;99646.00;;;24.90
12875;BMP180;6505;51.114;13.128;2022-08-03T04:32:19;99649.00;;;25.00
12875;BMP180;6505;51.114;13.128;2022-08-03T04:34:49;99657.00;;;25.00
12875;BMP180;6505;51.114;13.128;2022-08-03T04:37:30;99660.00;;;25.00
12875;BMP180;6505;51.114;13.128;2022-08-03T04:40:02;99664.00;;;25.00
12875;BMP180;6505;51.114;13.128;2022-08-03T04:42:33;99666.00;;;25.10
12875;BMP180;6505;51.114;13.128;2022-08-03T04:45:03;99660.00;;;25.10
12875;BMP180;6505;51.114;13.128;2022-08-03T04:47:33;99671.00;;;25.20
12875;BMP180;6505;51.114;13.128;2022-08-03T04:50:02;99668.00;;;25.20
12875;BMP180;6505;51.114;13.128;2022-08-03T04:52:38;99671.00;;;25.30
12875;BMP180;6505;51.114;13.128;2022-08-03T04:55:07;99662.00;;;25.30
12875;BMP180;6505;51.114;13.128;2022-08-03T04:57:35;99666.00;;;25.40
12875;BMP180;6505;51.114;13.128;2022-08-03T05:00:05;99663.00;;;25.40
12875;BMP180;6505;51.114;13.128;2022-08-03T05:02:33;99668.00;;;25.50
12875;BMP180;6505;51.114;13.128;2022-08-03T05:05:01;99674.00;;;25.50
12875;BMP180;6505;51.114;13.128;2022-08-03T05:07:29;99668.00;;;25.60
12875;BMP180;6505;51.114;13.128;2022-08-03T05:10:06;99664.00;;;25.60
12875;BMP180;6505;51.114;13.128;2022-08-03T05:12:43;99664.00;;;25.60
12875;BMP180;6505;51.114;13.128;2022-08-03T05:15:11;99666.00;;;25.70
12875;BMP180;6505;51.114;13.128;2022-08-03T05:17:40;99675.00;;;25.70
12875;BMP180;6505;51.114;13.128;2022-08-03T05:20:10;99662.00;;;25.70
12875;BMP180;6505;51.114;13.128;2022-08-03T05:22:38;99673.00;;;25.80
12875;BMP180;6505;51.114;13.128;2022-08-03T05:25:07;99675.00;;;25.80
12875;BMP180;6505;51.114;13.128;2022-08-03T05:27:43;99674.00;;;25.80
12875;BMP180;6505;51.114;13.128;2022-08-03T05:30:12;99666.00;;;25.90
12875;BMP180;6505;51.114;13.128;2022-08-03T05:33:01;99672.00;;;25.90
12875;BMP180;6505;51.114;13.128;2022-08-03T05:35:29;99671.00;;;25.90
12875;BMP180;6505;51.114;13.128;2022-08-03T05:38:17;99674.00;;;25.90
12875;BMP180;6505;51.114;13.128;2022-08-03T05:40:56;99677.00;;;25.90
12875;BMP180;6505;51.114;13.128;2022-08-03T05:43:44;99676.00;;;26.00
12875;BMP180;6505;51.114;13.128;2022-08-03T05:46:12;99681.00;;;26.00
12875;BMP180;6505;51.114;13.128;2022-08-03T05:48:41;99687.00;;;26.10
12875;BMP180;6505;51.114;13.128;2022-08-03T05:51:09;99679.00;;;26.10
12875;BMP180;6505;51.114;13.128;2022-08-03T05:53:39;99672.00;;;26.10
12875;BMP180;6505;51.114;13.128;2022-08-03T05:56:09;99685.00;;;26.20
12875;BMP180;6505;51.114;13.128;2022-08-03T05:58:41;99687.00;;;26.20
12875;BMP180;6505;51.114;13.128;2022-08-03T06:01:09;99692.00;;;26.30
12875;BMP180;6505;51.114;13.128;2022-08-03T06:03:37;99682.00;;;26.30
12875;BMP180;6505;51.114;13.128;2022-08-03T06:06:05;99685.00;;;26.40
12875;BMP180;6505;51.114;13.128;2022-08-03T06:08:33;99681.00;;;26.40
12875;BMP180;6505;51.114;13.128;2022-08-03T06:11:01;99676.00;;;26.40
12875;BMP180;6505;51.114;13.128;2022-08-03T06:13:31;99684.00;;;26.50
12875;BMP180;6505;51.114;13.128;2022-08-03T06:16:00;99695.00;;;26.60
12875;BMP180;6505;51.114;13.128;2022-08-03T06:18:28;99678.00;;;26.60
12875;BMP180;6505;51.114;13.128;2022-08-03T06:20:56;99681.00;;;26.70
12875;BMP180;6505;51.114;13.128;2022-08-03T06:23:41;99675.00;;;26.70
12875;BMP180;6505;51.114;13.128;2022-08-03T06:26:25;99679.00;;;26.80
12875;BMP180;6505;51.114;13.128;2022-08-03T06:28:55;99684.00;;;26.90
12875;BMP180;6505;51.114;13.128;2022-08-03T06:31:24;99682.00;;;27.00
12875;BMP180;6505;51.114;13.128;2022-08-03T06:34:03;99651.00;;;27.10
12875;BMP180;6505;51.114;13.128;2022-08-03T06:36:51;99684.00;;;27.20
12875;BMP180;6505;51.114;13.128;2022-08-03T06:39:27;99681.00;;;27.30
12875;BMP180;6505;51.114;13.128;2022-08-03T06:41:56;99686.00;;;27.50
12875;BMP180;6505;51.114;13.128;2022-08-03T06:44:25;99689.00;;;27.60
12875;BMP180;6505;51.114;13.128;2022-08-03T06:46:53;99686.00;;;27.80
12875;BMP180;6505;51.114;13.128;2022-08-03T06:49:22;99694.00;;;27.90
12875;BMP180;6505;51.114;13.128;2022-08-03T06:51:50;99690.00;;;28.10
12875;BMP180;6505;51.114;13.128;2022-08-03T06:54:33;99687.00;;;28.30
12875;BMP180;6505;51.114;13.128;2022-08-03T06:57:03;99688.00;;;28.50
12875;BMP180;6505;51.114;13.128;2022-08-03T06:59:32;99689.00;;;28.70
12875;BMP180;6505;51.114;13.128;2022-08-03T07:02:20;99687.00;;;28.90
12875;BMP180;6505;51.114;13.128;2022-08-03T07:04:48;99689.00;;;29.10
12875;BMP180;6505;51.114;13.128;2022-08-03T07:07:17;99689.00;;;29.30
12875;BMP180;6505;51.114;13.128;2022-08-03T07:09:46;99686.00;;;29.40
12875;BMP180;6505;51.114;13.128;2022-08-03T07:12:23;99663.00;;;29.60
12875;BMP180;6505;51.114;13.128;2022-08-03T07:14:53;99683.00;;;29.70
12875;BMP180;6505;51.114;13.128;2022-08-03T07:17:29;99683.00;;;29.90
12875;BMP180;6505;51.114;13.128;2022-08-03T07:19:57;99686.00;;;30.00
12875;BMP180;6505;51.114;13.128;2022-08-03T07:22:26;99680.00;;;30.20
12875;BMP180;6505;51.114;13.128;2022-08-03T07:24:54;99685.00;;;30.30
12875;BMP180;6505;51.114;13.128;2022-08-03T07:27:23;99688.00;;;30.40
12875;BMP180;6505;51.114;13.128;2022-08-03T07:29:54;99693.00;;;30.50
12875;BMP180;6505;51.114;13.128;2022-08-03T07:32:22;99694.00;;;30.70
12875;BMP180;6505;51.114;13.128;2022-08-03T07:34:50;99689.00;;;30.90
12875;BMP180;6505;51.114;13.128;2022-08-03T07:37:26;99691.00;;;31.00
12875;BMP180;6505;51.114;13.128;2022-08-03T07:39:53;99693.00;;;31.20
12875;BMP180;6505;51.114;13.128;2022-08-03T07:42:22;99691.00;;;31.30
12875;BMP180;6505;51.114;13.128;2022-08-03T07:44:49;99684.00;;;31.50
12875;BMP180;6505;51.114;13.128;2022-08-03T07:47:20;99679.00;;;31.60
12875;BMP180;6505;51.114;13.128;2022-08-03T07:49:49;99684.00;;;31.90
12875;BMP180;6505;51.114;13.128;2022-08-03T07:52:18;99679.00;;;32.00
12875;BMP180;6505;51.114;13.128;2022-08-03T07:55:05;99678.00;;;32.20
12875;BMP180;6505;51.114;13.128;2022-08-03T07:57:34;99686.00;;;32.40
12875;BMP180;6505;51.114;13.128;2022-08-03T08:00:03;99678.00;;;32.60
12875;BMP180;6505;51.114;13.128;2022-08-03T08:02:42;99684.00;;;32.80
12875;BMP180;6505;51.114;13.128;2022-08-03T08:05:11;99680.00;;;33.00
12875;BMP180;6505;51.114;13.128;2022-08-03T08:07:39;99691.00;;;33.30
12875;BMP180;6505;51.114;13.128;2022-08-03T08:10:09;99679.00;;;33.50
12875;BMP180;6505;51.114;13.128;2022-08-03T08:12:39;99687.00;;;33.70
12875;BMP180;6505;51.114;13.128;2022-08-03T08:15:08;99682.00;;;33.90
12875;BMP180;6505;51.114;13.128;2022-08-03T08:17:48;99688.00;;;34.10
12875;BMP180;6505;51.114;13.128;2022-08-03T08:20:19;99686.00;;;34.30
12875;BMP180;6505;51.114;13.128;2022-08-03T08:22:59;99658.00;;;34.50
12875;BMP180;6505;51.114;13.128;2022-08-03T08:25:30;99679.00;;;34.70
12875;BMP180;6505;51.114;13.128;2022-08-03T08:27:59;99682.00;;;34.80
12875;BMP180;6505;51.114;13.128;2022-08-03T08:30:49;99670.00;;;35.00
12875;BMP180;6505;51.114;13.128;2022-08-03T08:33:18;99677.00;;;35.20
12875;BMP180;6505;51.114;13.128;2022-08-03T08:35:51;99677.00;;;35.30
12875;BMP180;6505;51.114;13.128;2022-08-03T08:38:19;99680.00;;;35.50
12875;BMP180;6505;51.114;13.128;2022-08-03T08:40:48;99679.00;;;35.60
12875;BMP180;6505;51.114;13.128;2022-08-03T08:43:16;99676.00;;;35.70
12875;BMP180;6505;51.114;13.128;2022-08-03T08:45:46;99678.00;;;35.80
12875;BMP180;6505;51.114;13.128;2022-08-03T08:48:22;99680.00;;;35.80
12875;BMP180;6505;51.114;13.128;2022-08-03T08:50:52;99686.00;;;36.00
12875;BMP180;6505;51.114;13.128;2022-08-03T08:53:24;99680.00;;;35.90
12875;BMP180;6505;51.114;13.128;2022-08-03T08:55:57;99689.00;;;36.00
12875;BMP180;6505;51.114;13.128;2022-08-03T08:58:33;99683.00;;;36.10
12875;BMP180;6505;51.114;13.128;2022-08-03T09:01:02;99683.00;;;36.10
12875;BMP180;6505;51.114;13.128;2022-08-03T09:03:33;99687.00;;;36.10
12875;BMP180;6505;51.114;13.128;2022-08-03T09:06:02;99679.00;;;36.20
12875;BMP180;6505;51.114;13.128;2022-08-03T09:08:32;99688.00;;;36.20
12875;BMP180;6505;51.114;13.128;2022-08-03T09:11:00;99689.00;;;36.20
12875;BMP180;6505;51.114;13.128;2022-08-03T09:13:29;99685.00;;;36.20
12875;BMP180;6505;51.114;13.128;2022-08-03T09:16:19;99686.00;;;36.10
12875;BMP180;6505;51.114;13.128;2022-08-03T09:18:52;99682.00;;;36.10
12875;BMP180;6505;51.114;13.128;2022-08-03T09:21:22;99678.00;;;36.10
12875;BMP180;6505;51.114;13.128;2022-08-03T09:24:03;99684.00;;;36.10
12875;BMP180;6505;51.114;13.128;2022-08-03T09:26:38;99686.00;;;36.10
12875;BMP180;6505;51.114;13.128;2022-08-03T09:29:09;99677.00;;;36.00
12875;BMP180;6505;51.114;13.128;2022-08-03T09:31:43;99689.00;;;35.90
12875;BMP180;6505;51.114;13.128;2022-08-03T09:34:15;99682.00;;;35.80
12875;BMP180;6505;51.114;13.128;2022-08-03T09:36:45;99683.00;;;35.80
12875;BMP180;6505;51.114;13.128;2022-08-03T09:39:16;99680.00;;;35.70
12875;BMP180;6505;51.114;13.128;2022-08-03T09:41:48;99681.00;;;35.60
12875;BMP180;6505;51.114;13.128;2022-08-03T09:44:33;99680.00;;;35.50
12875;BMP180;6505;51.114;13.128;2022-08-03T09:47:03;99685.00;;;35.40
12875;BMP180;6505;51.114;13.128;2022-08-03T09:49:33;99673.00;;;35.40
12875;BMP180;6505;51.114;13.128;2022-08-03T09:52:13;99679.00;;;35.20
12875;BMP180;6505;51.114;13.128;2022-08-03T09:55:07;99678.00;;;35.10
12875;BMP180;6505;51.114;13.128;2022-08-03T09:58:04;99677.00;;;35.00
12875;BMP180;6505;51.114;13.128;2022-08-03T10:00:53;99673.00;;;34.90
12875;BMP180;6505;51.114;13.128;2022-08-03T10:03:24;99670.00;;;34.90
12875;BMP180;6505;51.114;13.128;2022-08-03T10:05:56;99671.00;;;34.80
12875;BMP180;6505;51.114;13.128;2022-08-03T10:08:26;99671.00;;;34.80
12875;BMP180;6505;51.114;13.128;2022-08-03T10:10:55;99664.00;;;34.70
12875;BMP180;6505;51.114;13.128;2022-08-03T10:13:25;99662.00;;;34.60
12875;BMP180;6505;51.114;13.128;2022-08-03T10:15:54;99661.00;;;34.60
12875;BMP180;6505;51.114;13.128;2022-08-03T10:18:43;99655.00;;;34.50
12875;BMP180;6505;51.114;13.128;2022-08-03T10:21:18;99647.00;;;34.30
12875;BMP180;6505;51.114;13.128;2022-08-03T10:23:48;99658.00;;;34.40
12875;BMP180;6505;51.114;13.128;2022-08-03T10:26:21;99654.00;;;34.30
12875;BMP180;6505;51.114;13.128;2022-08-03T10:28:55;99653.00;;;34.20
12875;BMP180;6505;51.114;13.128;2022-08-03T10:31:34;99664.00;;;34.10
12875;BMP180;6505;51.114;13.128;2022-08-03T10:34:25;99647.00;;;34.10
12875;BMP180;6505;51.114;13.128;2022-08-03T10:36:58;99650.00;;;34.00
12875;BMP180;6505;51.114;13.128;2022-08-03T10:39:29;99647.00;;;34.00
12875;BMP180;6505;51.114;13.128;2022-08-03T10:41:58;99653.00;;;34.00
12875;BMP180;6505;51.114;13.128;2022-08-03T10:44:38;99648.00;;;33.90
12875;BMP180;6505;51.114;13.128;2022-08-03T10:47:09;99648.00;;;33.80
12875;BMP180;6505;51.114;13.128;2022-08-03T10:49:38;99643.00;;;33.80
12875;BMP180;6505;51.114;13.128;2022-08-03T10:52:10;99646.00;;;33.70
12875;BMP180;6505;51.114;13.128;2022-08-03T10:54:59;99645.00;;;33.70
12875;BMP180;6505;51.114;13.128;2022-08-03T10:57:51;99644.00;;;33.60
12875;BMP180;6505;51.114;13.128;2022-08-03T11:00:26;99641.00;;;33.60
12875;BMP180;6505;51.114;13.128;2022-08-03T11:03:06;99640.00;;;33.60
12875;BMP180;6505;51.114;13.128;2022-08-03T11:05:40;99636.00;;;33.50
12875;BMP180;6505;51.114;13.128;2022-08-03T11:08:20;99639.00;;;33.50
12875;BMP180;6505;51.114;13.128;2022-08-03T11:10:51;99632.00;;;33.50
12875;BMP180;6505;51.114;13.128;2022-08-03T11:13:23;99640.00;;;33.50
12875;BMP180;6505;51.114;13.128;2022-08-03T11:15:55;99637.00;;;33.40
12875;BMP180;6505;51.114;13.128;2022-08-03T11:18:28;99632.00;;;33.40
12875;BMP180;6505;51.114;13.128;2022-08-03T11:20:58;99629.00;;;33.40
12875;BMP180;6505;51.114;13.128;2022-08-03T11:23:46;99632.00;;;33.30
12875;BMP180;6505;51.114;13.128;2022-08-03T11:26:32;99631.00;;;33.30
12875;BMP180;6505;51.114;13.128;2022-08-03T11:29:28;99625.00;;;33.20
12875;BMP180;6505;51.114;13.128;2022-08-03T11:31:56;99615.00;;;33.30
12875;BMP180;6505;51.114;13.128;2022-08-03T11:34:24;99615.00;;;33.20
12875;BMP180;6505;51.114;13.128;2022-08-03T11:37:19;99614.00;;;33.10
12875;BMP180;6505;51.114;13.128;2022-08-03T11:39:53;99612.00;;;33.10
12875;BMP180;6505;51.114;13.128;2022-08-03T11:42:42;99613.00;;;33.10
12875;BMP180;6505;51.114;13.128;2022-08-03T11:45:16;99596.00;;;33.10
12875;BMP180;6505;51.114;13.128;2022-08-03T11:47:47;99612.00;;;33.10
12875;BMP180;6505;51.114;13.128;2022-08-03T11:50:18;99618.00;;;33.10
12875;BMP180;6505;51.114;13.128;2022-08-03T11:52:48;99615.00;;;33.00
12875;BMP180;6505;51.114;13.128;2022-08-03T11:55:19;99608.00;;;33.00
12875;BMP180;6505;51.114;13.128;2022-08-03T11:57:48;99606.00;;;33.00
12875;BMP180;6505;51.114;13.128;2022-08-03T12:00:36;99607.00;;;33.00
12875;BMP180;6505;51.114;13.128;2022-08-03T12:03:07;99607.00;;;33.00
12875;BMP180;6505;51.114;13.128;2022-08-03T12:05:45;99605.00;;;32.90
12875;BMP180;6505;51.114;13.128;2022-08-03T12:08:29;99609.00;;;32.90
12875;BMP180;6505;51.114;13.128;2022-08-03T12:11:02;99602.00;;;32.90
12875;BMP180;6505;51.114;13.128;2022-08-03T12:13:38;99601.00;;;32.80
12875;BMP180;6505;51.114;13.128;2022-08-03T12:16:27;99599.00;;;32.90
12875;BMP180;6505;51.114;13.128;2022-08-03T12:18:57;99595.00;;;32.80
12875;BMP180;6505;51.114;13.128;2022-08-03T12:21:25;99588.00;;;32.80
12875;BMP180;6505;51.114;13.128;2022-08-03T12:23:58;99590.00;;;32.80
12875;BMP180;6505;51.114;13.128;2022-08-03T12:26:30;99589.00;;;32.80
12875;BMP180;6505;51.114;13.128;2022-08-03T12:29:16;99591.00;;;32.70
12875;BMP180;6505;51.114;13.128;2022-08-03T12:31:45;99600.00;;;32.70
12875;BMP180;6505;51.114;13.128;2022-08-03T12:34:13;99589.00;;;32.70
12875;BMP180;6505;51.114;13.128;2022-08-03T12:36:51;99574.00;;;32.70
12875;BMP180;6505;51.114;13.128;2022-08-03T12:39:23;99583.00;;;32.70
12875;BMP180;6505;51.114;13.128;2022-08-03T12:41:55;99578.00;;;32.60
12875;BMP180;6505;51.114;13.128;2022-08-03T12:44:29;99578.00;;;32.60
12875;BMP180;6505;51.114;13.128;2022-08-03T12:46:58;99569.00;;;32.60
12875;BMP180;6505;51.114;13.128;2022-08-03T12:49:26;99569.00;;;32.60
12875;BMP180;6505;51.114;13.128;2022-08-03T12:51:57;99571.00;;;32.60
12875;BMP180;6505;51.114;13.128;2022-08-03T12:54:33;99571.00;;;32.60
12875;BMP180;6505;51.114;13.128;2022-08-03T12:57:05;99563.00;;;32.50
12875;BMP180;6505;51.114;13.128;2022-08-03T12:59:36;99557.00;;;32.50
12875;BMP180;6505;51.114;13.128;2022-08-03T13:02:14;99564.00;;;32.50
12875;BMP180;6505;51.114;13.128;2022-08-03T13:04:45;99562.00;;;32.50
12875;BMP180;6505;51.114;13.128;2022-08-03T13:07:15;99561.00;;;32.50
12875;BMP180;6505;51.114;13.128;2022-08-03T13:09:47;99563.00;;;32.50
12875;BMP180;6505;51.114;13.128;2022-08-03T13:12:19;99564.00;;;32.50
12875;BMP180;6505;51.114;13.128;2022-08-03T13:14:51;99561.00;;;32.50
12875;BMP180;6505;51.114;13.128;2022-08-03T13:17:19;99560.00;;;32.50
12875;BMP180;6505;51.114;13.128;2022-08-03T13:19:48;99563.00;;;32.50
12875;BMP180;6505;51.114;13.128;2022-08-03T13:22:19;99565.00;;;32.40
12875;BMP180;6505;51.114;13.128;2022-08-03T13:24:50;99556.00;;;32.40
12875;BMP180;6505;51.114;13.128;2022-08-03T13:27:19;99566.00;;;32.40
12875;BMP180;6505;51.114;13.128;2022-08-03T13:30:09;99563.00;;;32.40
12875;BMP180;6505;51.114;13.128;2022-08-03T13:32:37;99563.00;;;32.40
12875;BMP180;6505;51.114;13.128;2022-08-03T13:35:07;99553.00;;;32.40
12875;BMP180;6505;51.114;13.128;2022-08-03T13:37:36;99553.00;;;32.40
12875;BMP180;6505;51.114;13.128;2022-08-03T13:40:07;99550.00;;;32.40
12875;BMP180;6505;51.114;13.128;2022-08-03T13:42:38;99554.00;;;32.40
12875;BMP180;6505;51.114;13.128;2022-08-03T13:45:07;99542.00;;;32.40
12875;BMP180;6505;51.114;13.128;2022-08-03T13:47:37;99546.00;;;32.30
12875;BMP180;6505;51.114;13.128;2022-08-03T13:50:05;99537.00;;;32.30
12875;BMP180;6505;51.114;13.128;2022-08-03T13:52:35;99535.00;;;32.30
12875;BMP180;6505;51.114;13.128;2022-08-03T13:55:06;99529.00;;;32.30
12875;BMP180;6505;51.114;13.128;2022-08-03T13:57:34;99534.00;;;32.30
12875;BMP180;6505;51.114;13.128;2022-08-03T14:00:24;99532.00;;;32.30
12875;BMP180;6505;51.114;13.128;2022-08-03T14:02:57;99525.00;;;32.30
12875;BMP180;6505;51.114;13.128;2022-08-03T14:05:39;99529.00;;;32.30
12875;BMP180;6505;51.114;13.128;2022-08-03T14:08:07;99524.00;;;32.30
12875;BMP180;6505;51.114;13.128;2022-08-03T14:10:38;99526.00;;;32.30
12875;BMP180;6505;51.114;13.128;2022-08-03T14:13:08;99516.00;;;32.30
12875;BMP180;6505;51.114;13.128;2022-08-03T14:15:38;99519.00;;;32.30
12875;BMP180;6505;51.114;13.128;2022-08-03T14:18:06;99517.00;;;32.30
12875;BMP180;6505;51.114;13.128;2022-08-03T14:20:42;99513.00;;;32.20
12875;BMP180;6505;51.114;13.128;2022-08-03T14:23:17;99516.00;;;32.20
12875;BMP180;6505;51.114;13.128;2022-08-03T14:25:46;99520.00;;;32.20
12875;BMP180;6505;51.114;13.128;2022-08-03T14:28:20;99510.00;;;32.20
12875;BMP180;6505;51.114;13.128;2022-08-03T14:30:52;99514.00;;;32.20
12875;BMP180;6505;51.114;13.128;2022-08-03T14:33:20;99513.00;;;32.20
12875;BMP180;6505;51.114;13.128;2022-08-03T14:35:50;99508.00;;;32.20
12875;BMP180;6505;51.114;13.128;2022-08-03T14:38:19;99513.00;;;32.20
12875;BMP180;6505;51.114;13.128;2022-08-03T14:40:48;99509.00;;;32.20
12875;BMP180;6505;51.114;13.128;2022-08-03T14:43:16;99510.00;;;32.20
12875;BMP180;6505;51.114;13.128;2022-08-03T14:45:46;99506.00;;;32.20